トロンハイム の空港の天気 - METARとTAF

Trondheim / Vaernes ( ENVA / TRD ) - ノルウェー ヌール・トロンデラーグ県、Stjordal
飛行場実況気象(Metar)
観測時間12/14 07:20 CET (12/14 06:20 UTC)
風向・風速東南東 3m/s
視程10km以上
天気現象
なし
気温-14℃
湿度92%
気圧1032hPa
METARENVA 140620Z 11006KT CAVOK M14/M15 Q1032 NOSIG RMK WIND 670FT 18004KT
過去の天気等 Google飛行場航空写真 Wunderground天気予報

過去48時間のMETAR

飛行場予報(TAF)
発表時間: -
TAF ENVA 1406/1506 11008KT CAVOK